Startpagina
METAR-TAF:

METAR-TAF

Vliegvelden :

Geilenkirchen, Duitsland

breedte: 50-57-39N, lengte: 006-2-33E, hoogte: 90 m

Actueel weer

Dit bericht is 37 minuten geleden gemaakt, om 09:50 UTC
Wind 2 kt uit het noordoosten
Temperatuur 17°C
Vochtigheid 55%
Druk 1021 hPa
Zicht 10 km of meer
Weinig wolken op 3000 ft
Gebroken wolken op 30000 ft

METAR: ETNG 210950Z 05002KT 9999 FEW030 BKN300 17/08 Q1021 NOSIG

Tijdstip: 12:27 (10:27 UTC)

Verwachting

Dit bericht is 2 uur en het 27 minuten geleden gemaakt, om 08:00 UTC
Verwachting geldig van 21 om 09 UTC tot 21 om 24 UTC
Wind 5 kt uit het zuiden
Zicht 10 km of meer
Weinig wolken op 4000 ft

TAF: ETNG 210800Z 2109/2124 18005KT CAVOK 2109/2116 FEW040

Waarnemingen en weersverwachtingen van meer dan 4000 vliegvelden (METAR en TAF).

De beschikbare stations zijn de gele en rode punten op de kaart.

Ga met uw muis naar het station om de naam te zien.

Klik dan om waarnemingen en weersverwachtingen te zien.

kaart wijzigen: klik op de groene knoppen met een zwart kruis om in te zoomen, op de groene knop met een streepje om uit te zoomen of op de groene pijlen voor aangrenzende kaarten.


METAR-TAF: